Lake Park, FL

4:14 PM EST on November 23, 2014 (GMT -0500)
Rybovich Boat Company | Change Station
CLOSE
Current Station
Personal Weather Station
Location: West Palm Beach, FL
Elevation: 10 ft
Nearby Weather Stations
Active Advisory: Coastal Hazard Statement

Elev 10 ft 26.75 °N, 80.05 °W | Updated 1 second ago

Mostly Cloudy
Mostly Cloudy
79.0 °F
Feels Like 83 °F
N
3.3
Wind Variable Wind from SSE
Gusts 13.0 mph

Today
High -- | Low -- °F
--% Chance of Precip.
Yesterday
High -- | Low -- °F
Precip. -- in
6:45 AM 5:27 PM
New Moon, 2% visible
Pressure 29.91 in
Visibility 10.0 miles
Clouds Few 1700 ft
Mostly Cloudy 2200 ft
Mostly Cloudy 4000 ft
Heat Index 83 °F
Dew Point 74 °F
Humidity 87%
Rainfall 0.25 in
Snow Depth Not available.
UV 1 out of 12
Pollen 3.10 out of 12
Air Quality Not available.
Flu Activity Not available.
METAR KPBI 232053Z 16011KT 10SM FEW017 BKN022 BKN040 28/23 A2991 RMK AO2 SLP128 60000 T02830233 56020

More Conditions Fewer Conditions

Pressure 29.91 in
Visibility 10.0 miles
Clouds Few 1700 ft
Mostly Cloudy 2200 ft
Mostly Cloudy 4000 ft
Heat Index 83 °F
Dew Point 74 °F
Humidity 87%
Rainfall 0.25 in
Snow Depth Not available.
UV 1 out of 12
Pollen 3.10 out of 12
Air Quality Not available.
Flu Activity Not available.
METAR KPBI 232053Z 16011KT 10SM FEW017 BKN022 BKN040 28/23 A2991 RMK AO2 SLP128 60000 T02830233 56020

More Conditions Fewer Conditions

10-Day Weather Forecast

Almanac

Astronomy

Nov. 23, 2014 Rise Set
Actual Time
Civil Twilight
Nautical Twilight
Astronomical Twilight
Moon
Length of Visible Light
Length of Day
Tomorrow will be .
, % of the Moon is Illuminated

Today's Extremes

State Highs State Lows

Community

WunderPhotos

Upload Photos

1,773,176 photos uploaded!

WunderBlogs® & News

Nearby

Air Quality

  Air Quality AQ Index Pollutant
Not available.

Snow Depth

Station Depth Elevation

Earthquake Activity

City Distance Mag. Time & Date
Minimum magnitude displayed is 2.5.

Coastal Water Temperatures

Place Temperature

Nearby Weather Stations